Time;durP1;ratioP1;P1;durP2;ratioP2;P2;SDS_P1;SDS_P2;PMS_P1;PMS_P2;Temp;Humidity;BMP_temperature;BMP_pressure;BME280_temperature;BME280_humidity;BME280_pressure;Samples;Min_cycle;Max_cycle;Signal;HPM_P1;HPM_P2
2024/01/31 00:00:19;;;;;;;15.30;8.23;;;;;;;;;;5051781;28;20210;-83
2024/01/31 00:02:46;;;;;;;11.50;8.33;;;;;;;;;;5052310;28;20226;-83
2024/01/31 00:05:14;;;;;;;13.57;8.97;;;;;;;;;;5051928;28;20206;-82
2024/01/31 00:07:41;;;;;;;13.87;8.53;;;;;;;;;;5052343;28;20789;-83
2024/01/31 00:10:10;;;;;;;14.67;8.57;;;;;;;;;;5051427;28;20206;-83
2024/01/31 00:12:37;;;;;;;14.23;8.70;;;;;;;;;;5052105;28;20222;-82
2024/01/31 00:15:04;;;;;;;14.70;7.80;;;;;;;;;;5051614;28;20221;-83
2024/01/31 00:17:31;;;;;;;13.07;9.33;;;;;;;;;;5052125;28;20232;-83
2024/01/31 00:19:58;;;;;;;14.37;9.70;;;;;;;;;;5051452;28;20209;-83
2024/01/31 00:22:25;;;;;;;13.50;9.27;;;;;;;;;;5051116;28;20720;-83
2024/01/31 00:24:52;;;;;;;14.40;9.33;;;;;;;;;;5047310;28;20195;-83
2024/01/31 00:27:20;;;;;;;13.10;9.43;;;;;;;;;;5045342;28;20241;-83
2024/01/31 00:29:47;;;;;;;10.33;8.10;;;;;;;;;;5051823;28;20201;-83
2024/01/31 00:32:14;;;;;;;15.17;9.77;;;;;;;;;;5051374;28;20296;-83
2024/01/31 00:34:42;;;;;;;15.43;10.33;;;;;;;;;;5051586;28;20209;-83
2024/01/31 00:37:09;;;;;;;16.07;11.27;;;;;;;;;;5051054;28;20238;-83
2024/01/31 00:39:36;;;;;;;14.93;9.70;;;;;;;;;;5051459;28;20306;-83
2024/01/31 00:42:03;;;;;;;13.77;10.50;;;;;;;;;;5051032;28;20240;-83
2024/01/31 00:44:31;;;;;;;21.43;10.77;;;;;;;;;;5051812;28;20202;-83
2024/01/31 00:46:58;;;;;;;13.50;10.87;;;;;;;;;;5051169;28;20658;-83
2024/01/31 00:49:25;;;;;;;17.83;11.53;;;;;;;;;;5051608;28;20260;-83
2024/01/31 00:51:52;;;;;;;16.07;11.30;;;;;;;;;;5050965;28;20279;-83
2024/01/31 00:54:19;;;;;;;17.93;11.83;;;;;;;;;;5051638;28;20259;-83
2024/01/31 00:56:46;;;;;;;15.57;11.43;;;;;;;;;;5043740;28;20237;-83
2024/01/31 00:59:13;;;;;;;17.47;10.77;;;;;;;;;;5051662;28;20232;-83
2024/01/31 01:01:41;;;;;;;18.00;11.73;;;;;;;;;;5050081;28;20225;-83
2024/01/31 01:04:08;;;;;;;18.20;11.53;;;;;;;;;;5051605;28;20210;-83
2024/01/31 01:06:35;;;;;;;17.03;11.27;;;;;;;;;;5050892;28;20238;-83
2024/01/31 01:09:03;;;;;;;20.67;11.60;;;;;;;;;;5051376;28;20676;-83
2024/01/31 01:11:30;;;;;;;15.73;12.40;;;;;;;;;;5050677;28;20273;-84
2024/01/31 01:13:57;;;;;;;19.43;11.73;;;;;;;;;;5051693;28;20744;-83
2024/01/31 01:16:24;;;;;;;20.60;12.37;;;;;;;;;;5050878;28;20238;-84
2024/01/31 01:18:52;;;;;;;18.00;11.40;;;;;;;;;;5047588;28;20251;-83
2024/01/31 01:21:19;;;;;;;14.07;10.73;;;;;;;;;;5050675;28;20222;-83
2024/01/31 01:23:46;;;;;;;19.77;12.30;;;;;;;;;;5051558;28;20206;-83
2024/01/31 01:26:13;;;;;;;21.97;11.47;;;;;;;;;;5050865;28;20234;-84
2024/01/31 01:28:43;;;;;;;18.20;11.90;;;;;;;;;;5051559;28;20210;-83
2024/01/31 01:31:12;;;;;;;22.10;12.80;;;;;;;;;;5050649;28;20230;-83
2024/01/31 01:33:39;;;;;;;17.77;12.07;;;;;;;;;;5051558;28;20268;-83
2024/01/31 01:36:08;;;;;;;20.03;12.27;;;;;;;;;;5050863;28;20242;-84
2024/01/31 01:38:36;;;;;;;18.37;11.93;;;;;;;;;;5051558;28;20256;-83
2024/01/31 01:41:03;;;;;;;20.13;12.13;;;;;;;;;;5050398;28;20241;-83
2024/01/31 01:43:30;;;;;;;23.70;13.33;;;;;;;;;;5050913;28;20226;-83
2024/01/31 01:46:04;;;;;;;18.07;12.33;;;;;;;;;;5044854;28;20222;-83
2024/01/31 01:48:31;;;;;;;24.93;13.63;;;;;;;;;;5031733;28;20214;-83
2024/01/31 01:50:58;;;;;;;18.73;12.93;;;;;;;;;;5051767;28;20228;-83
2024/01/31 01:53:26;;;;;;;18.97;12.60;;;;;;;;;;5054589;28;20271;-83
2024/01/31 01:55:54;;;;;;;20.67;12.77;;;;;;;;;;5053800;28;20704;-84
2024/01/31 01:58:21;;;;;;;17.13;12.20;;;;;;;;;;5054656;28;20194;-83
2024/01/31 02:00:48;;;;;;;23.93;12.80;;;;;;;;;;5053982;28;20259;-83
2024/01/31 02:03:16;;;;;;;19.60;12.87;;;;;;;;;;5054265;28;20715;-83
2024/01/31 02:05:44;;;;;;;20.90;12.33;;;;;;;;;;5053196;28;20738;-83
2024/01/31 02:08:12;;;;;;;21.47;13.23;;;;;;;;;;5053108;28;20198;-84
2024/01/31 02:10:40;;;;;;;21.83;13.50;;;;;;;;;;5053843;28;20584;-83
2024/01/31 02:13:07;;;;;;;21.07;13.60;;;;;;;;;;5054282;28;20222;-84
2024/01/31 02:15:34;;;;;;;18.63;12.07;;;;;;;;;;5053898;28;20233;-84
2024/01/31 02:18:02;;;;;;;19.23;12.23;;;;;;;;;;5054318;28;20206;-83
2024/01/31 02:20:29;;;;;;;17.03;11.40;;;;;;;;;;5053294;28;20646;-84
2024/01/31 02:22:57;;;;;;;18.80;11.70;;;;;;;;;;5054120;28;20271;-84
2024/01/31 02:25:24;;;;;;;15.17;12.43;;;;;;;;;;5053839;28;20238;-84
2024/01/31 02:27:51;;;;;;;17.13;11.63;;;;;;;;;;5054073;28;20210;-84
2024/01/31 02:30:18;;;;;;;23.10;13.40;;;;;;;;;;5053585;28;20241;-84
2024/01/31 02:32:45;;;;;;;19.27;12.63;;;;;;;;;;5053899;28;20785;-84
2024/01/31 02:35:13;;;;;;;21.60;13.53;;;;;;;;;;5053577;28;20209;-84
2024/01/31 02:37:43;;;;;;;21.33;13.90;;;;;;;;;;5053668;28;20198;-83
2024/01/31 02:40:12;;;;;;;25.13;14.60;;;;;;;;;;5053345;28;20256;-84
2024/01/31 02:42:39;;;;;;;24.57;14.67;;;;;;;;;;5053912;28;20662;-84
2024/01/31 02:45:06;;;;;;;28.43;14.63;;;;;;;;;;5053475;28;20202;-85
2024/01/31 02:47:33;;;;;;;18.30;13.30;;;;;;;;;;5053601;28;20198;-84
2024/01/31 02:50:00;;;;;;;22.83;13.00;;;;;;;;;;5053734;28;20202;-84
2024/01/31 02:52:27;;;;;;;22.50;13.87;;;;;;;;;;5053339;28;20222;-84
2024/01/31 02:54:54;;;;;;;21.87;12.93;;;;;;;;;;5053874;28;20206;-84
2024/01/31 02:57:23;;;;;;;25.07;15.03;;;;;;;;;;5053059;28;20234;-85
2024/01/31 02:59:50;;;;;;;25.07;14.50;;;;;;;;;;5053377;28;20621;-84
2024/01/31 03:02:17;;;;;;;25.73;13.97;;;;;;;;;;5052643;28;20229;-84
2024/01/31 03:04:44;;;;;;;22.63;14.50;;;;;;;;;;5053451;28;20226;-84
2024/01/31 03:07:11;;;;;;;20.60;13.80;;;;;;;;;;5052995;28;20225;-85
2024/01/31 03:09:38;;;;;;;24.07;14.17;;;;;;;;;;5052961;28;20205;-85
2024/01/31 03:12:05;;;;;;;20.63;13.63;;;;;;;;;;5053023;28;20242;-84
2024/01/31 03:14:34;;;;;;;19.07;12.53;;;;;;;;;;5053434;28;20202;-84
2024/01/31 03:17:01;;;;;;;22.00;13.53;;;;;;;;;;5052570;28;20225;-84
2024/01/31 03:19:29;;;;;;;20.90;12.30;;;;;;;;;;5052925;28;20217;-84
2024/01/31 03:21:56;;;;;;;22.23;14.13;;;;;;;;;;5052417;28;20256;-84
2024/01/31 03:24:23;;;;;;;21.13;13.17;;;;;;;;;;5053090;28;20615;-84
2024/01/31 03:26:50;;;;;;;22.50;14.30;;;;;;;;;;5052510;28;20292;-84
2024/01/31 03:29:17;;;;;;;19.90;14.20;;;;;;;;;;5052870;28;20198;-84
2024/01/31 03:31:46;;;;;;;26.23;13.93;;;;;;;;;;5052029;28;20659;-84
2024/01/31 03:34:13;;;;;;;22.23;13.87;;;;;;;;;;5052988;28;20206;-84
2024/01/31 03:36:41;;;;;;;24.40;15.03;;;;;;;;;;5051836;28;20242;-84
2024/01/31 03:39:08;;;;;;;25.73;13.43;;;;;;;;;;5053321;28;20221;-83
2024/01/31 03:41:35;;;;;;;20.33;13.93;;;;;;;;;;5052688;28;20600;-84
2024/01/31 03:44:02;;;;;;;21.63;13.47;;;;;;;;;;5053644;28;20206;-84
2024/01/31 03:46:29;;;;;;;24.53;13.57;;;;;;;;;;5052290;28;20222;-83
2024/01/31 03:48:57;;;;;;;23.30;14.63;;;;;;;;;;5052496;28;20202;-84
2024/01/31 03:51:25;;;;;;;22.77;14.53;;;;;;;;;;5051767;28;20233;-84
2024/01/31 03:53:52;;;;;;;23.37;14.53;;;;;;;;;;5052544;28;20202;-83
2024/01/31 03:56:19;;;;;;;24.73;14.07;;;;;;;;;;5051913;28;20233;-84
2024/01/31 03:58:46;;;;;;;19.00;12.97;;;;;;;;;;5052264;28;20733;-84
2024/01/31 04:01:15;;;;;;;20.67;14.20;;;;;;;;;;5051433;28;20313;-84
2024/01/31 04:03:44;;;;;;;31.07;16.17;;;;;;;;;;5052235;28;20260;-83
2024/01/31 04:06:12;;;;;;;23.73;13.07;;;;;;;;;;5051696;28;20218;-84
2024/01/31 04:08:40;;;;;;;25.93;15.00;;;;;;;;;;5052146;28;20260;-84
2024/01/31 04:11:07;;;;;;;24.10;15.53;;;;;;;;;;5051451;28;20708;-83
2024/01/31 04:13:34;;;;;;;24.53;15.23;;;;;;;;;;5051593;28;20272;-83
2024/01/31 04:16:01;;;;;;;23.73;15.70;;;;;;;;;;5051182;28;20622;-83
2024/01/31 04:18:28;;;;;;;24.83;15.20;;;;;;;;;;5051766;28;20591;-84
2024/01/31 04:20:55;;;;;;;25.10;16.00;;;;;;;;;;5051061;28;20283;-84
2024/01/31 04:23:23;;;;;;;29.27;15.17;;;;;;;;;;5051827;28;20224;-83
2024/01/31 04:25:50;;;;;;;22.53;14.73;;;;;;;;;;5051529;28;20279;-84
2024/01/31 04:28:18;;;;;;;27.83;16.90;;;;;;;;;;5051862;28;20605;-84
2024/01/31 04:30:45;;;;;;;20.93;14.10;;;;;;;;;;5051337;28;20313;-84
2024/01/31 04:33:12;;;;;;;31.07;15.77;;;;;;;;;;5052100;28;20222;-84
2024/01/31 04:35:39;;;;;;;22.87;15.20;;;;;;;;;;5051386;28;20245;-84
2024/01/31 04:38:06;;;;;;;24.87;14.67;;;;;;;;;;5051731;28;20566;-84
2024/01/31 04:40:35;;;;;;;25.80;15.87;;;;;;;;;;5051014;28;20244;-84
2024/01/31 04:43:02;;;;;;;26.63;15.83;;;;;;;;;;5052029;28;20275;-84
2024/01/31 04:45:29;;;;;;;23.37;15.37;;;;;;;;;;5051206;28;20724;-84
2024/01/31 04:47:56;;;;;;;20.30;12.53;;;;;;;;;;5051779;28;20202;-84
2024/01/31 04:50:24;;;;;;;16.30;11.37;;;;;;;;;;5050832;28;20246;-84
2024/01/31 04:52:51;;;;;;;22.50;10.17;;;;;;;;;;5042095;28;20309;-83
2024/01/31 04:55:18;;;;;;;22.67;10.60;;;;;;;;;;5044318;28;20225;-84
2024/01/31 04:57:46;;;;;;;14.93;10.00;;;;;;;;;;5051365;28;20222;-83
2024/01/31 05:00:17;;;;;;;21.67;11.23;;;;;;;;;;5051216;28;20222;-83
2024/01/31 05:02:44;;;;;;;32.40;12.03;;;;;;;;;;5049312;28;20225;-83
2024/01/31 05:05:11;;;;;;;17.00;10.20;;;;;;;;;;5050917;28;20255;-84
2024/01/31 05:07:38;;;;;;;17.20;11.00;;;;;;;;;;5051205;28;20202;-83
2024/01/31 05:10:05;;;;;;;13.40;10.60;;;;;;;;;;5050381;28;20186;-83
2024/01/31 05:12:32;;;;;;;15.53;11.77;;;;;;;;;;5030981;28;20229;-83
2024/01/31 05:15:01;;;;;;;15.87;11.47;;;;;;;;;;5031553;28;20203;-83
2024/01/31 05:17:28;;;;;;;16.13;11.43;;;;;;;;;;5036900;28;20226;-83
2024/01/31 05:19:55;;;;;;;15.57;11.83;;;;;;;;;;5051507;28;20640;-83
2024/01/31 05:22:22;;;;;;;17.93;11.13;;;;;;;;;;5050754;28;20739;-85
2024/01/31 05:24:49;;;;;;;13.70;9.97;;;;;;;;;;5052584;28;20252;-84
2024/01/31 05:27:16;;;;;;;9.20;7.60;;;;;;;;;;5054721;28;20716;-83
2024/01/31 05:29:43;;;;;;;42.93;7.80;;;;;;;;;;5054757;28;20309;-84
2024/01/31 05:32:11;;;;;;;53.03;8.67;;;;;;;;;;5054359;28;20240;-83
2024/01/31 05:34:40;;;;;;;31.13;9.13;;;;;;;;;;5054829;28;20259;-84
2024/01/31 05:37:07;;;;;;;34.53;7.67;;;;;;;;;;5054175;28;20648;-83
2024/01/31 05:39:34;;;;;;;73.67;8.97;;;;;;;;;;5054621;28;20198;-83
2024/01/31 05:42:02;;;;;;;30.13;7.27;;;;;;;;;;5054183;28;20245;-82
2024/01/31 05:44:29;;;;;;;51.07;8.60;;;;;;;;;;5054332;28;20198;-82
2024/01/31 05:46:56;;;;;;;35.30;7.20;;;;;;;;;;5054080;28;20590;-84
2024/01/31 05:49:24;;;;;;;49.63;8.20;;;;;;;;;;5054592;28;20210;-82
2024/01/31 05:51:51;;;;;;;36.07;7.77;;;;;;;;;;5048717;28;20263;-82
2024/01/31 05:54:18;;;;;;;16.67;8.33;;;;;;;;;;5054828;28;20202;-82
2024/01/31 05:56:45;;;;;;;17.43;6.53;;;;;;;;;;5053903;28;20233;-82
2024/01/31 05:59:12;;;;;;;19.73;7.10;;;;;;;;;;5054692;28;20210;-83
2024/01/31 06:01:39;;;;;;;8.37;7.10;;;;;;;;;;5053724;28;20242;-82
2024/01/31 06:04:09;;;;;;;7.47;6.77;;;;;;;;;;5054603;28;20205;-82
2024/01/31 06:06:37;;;;;;;10.93;7.63;;;;;;;;;;5053847;28;20757;-82
2024/01/31 06:09:05;;;;;;;11.73;9.27;;;;;;;;;;5054194;28;20202;-82
2024/01/31 06:11:32;;;;;;;26.00;14.67;;;;;;;;;;5053217;28;20241;-81
2024/01/31 06:13:59;;;;;;;36.73;20.30;;;;;;;;;;5054456;28;20237;-80
2024/01/31 06:16:27;;;;;;;18.10;10.07;;;;;;;;;;5053748;28;20643;-80
2024/01/31 06:18:54;;;;;;;14.40;10.40;;;;;;;;;;5053946;28;20540;-81
2024/01/31 06:21:21;;;;;;;21.03;11.07;;;;;;;;;;5053186;28;20245;-82
2024/01/31 06:23:49;;;;;;;16.17;11.33;;;;;;;;;;5054051;28;20209;-80
2024/01/31 06:26:16;;;;;;;17.10;11.53;;;;;;;;;;5053540;28;20241;-80
2024/01/31 06:28:43;;;;;;;33.60;19.63;;;;;;;;;;5053731;28;20198;-80
2024/01/31 06:31:16;;;;;;;14.73;10.53;;;;;;;;;;5053347;28;20240;-80
2024/01/31 06:33:43;;;;;;;23.17;9.90;;;;;;;;;;5053846;28;20215;-81
2024/01/31 06:36:10;;;;;;;13.53;9.73;;;;;;;;;;5052744;28;20241;-81
2024/01/31 06:38:37;;;;;;;16.93;10.53;;;;;;;;;;5053426;28;20229;-81
2024/01/31 06:41:06;;;;;;;16.23;10.77;;;;;;;;;;5053218;28;20229;-81
2024/01/31 06:43:33;;;;;;;15.80;10.30;;;;;;;;;;5053530;28;20264;-81
2024/01/31 06:46:00;;;;;;;16.60;11.23;;;;;;;;;;5053200;28;20639;-81
2024/01/31 06:48:28;;;;;;;16.53;11.23;;;;;;;;;;5053628;28;20210;-81
2024/01/31 06:50:55;;;;;;;15.70;10.53;;;;;;;;;;5038267;28;20328;-81
2024/01/31 06:53:22;;;;;;;10.97;8.13;;;;;;;;;;5053314;28;20606;-81
2024/01/31 06:55:49;;;;;;;9.40;7.33;;;;;;;;;;5052673;28;20241;-80
2024/01/31 06:58:17;;;;;;;10.47;7.40;;;;;;;;;;5052611;28;20226;-80
2024/01/31 07:00:44;;;;;;;8.83;6.47;;;;;;;;;;5052534;28;20234;-81
2024/01/31 07:03:12;;;;;;;8.07;6.83;;;;;;;;;;5053068;28;20229;-81
2024/01/31 07:05:39;;;;;;;10.27;7.80;;;;;;;;;;5052675;28;20229;-80
2024/01/31 07:08:06;;;;;;;10.53;7.60;;;;;;;;;;5052980;28;20599;-81
2024/01/31 07:10:33;;;;;;;14.00;9.87;;;;;;;;;;5052464;28;20234;-80
2024/01/31 07:13:00;;;;;;;13.50;9.80;;;;;;;;;;5052783;28;20802;-81
2024/01/31 07:15:29;;;;;;;13.20;9.47;;;;;;;;;;5052802;28;20238;-80
2024/01/31 07:17:56;;;;;;;13.40;9.77;;;;;;;;;;5053052;28;20233;-81
2024/01/31 07:20:23;;;;;;;16.57;10.63;;;;;;;;;;5052261;28;20238;-80
2024/01/31 07:22:50;;;;;;;14.90;10.50;;;;;;;;;;5053130;28;20230;-81
2024/01/31 07:25:17;;;;;;;9.93;8.47;;;;;;;;;;5052496;28;20210;-80
2024/01/31 07:27:44;;;;;;;13.87;7.67;;;;;;;;;;5052874;28;20289;-81
2024/01/31 07:30:12;;;;;;;10.00;8.17;;;;;;;;;;5052160;28;20255;-80
2024/01/31 07:32:40;;;;;;;12.13;8.37;;;;;;;;;;5052575;28;20234;-81
2024/01/31 07:35:08;;;;;;;15.47;9.23;;;;;;;;;;5052053;28;20551;-81
2024/01/31 07:37:35;;;;;;;14.10;10.07;;;;;;;;;;5052058;28;20226;-82
2024/01/31 07:40:04;;;;;;;10.97;8.53;;;;;;;;;;5052418;28;20267;-80
2024/01/31 07:42:31;;;;;;;15.67;10.10;;;;;;;;;;5051977;28;20279;-80
2024/01/31 07:44:58;;;;;;;15.30;10.03;;;;;;;;;;5052342;28;20764;-80
2024/01/31 07:47:25;;;;;;;14.37;9.37;;;;;;;;;;5051538;28;20234;-80
2024/01/31 07:49:53;;;;;;;13.27;8.07;;;;;;;;;;5051063;28;20202;-85
2024/01/31 07:52:20;;;;;;;11.27;9.10;;;;;;;;;;5051693;28;20238;-81
2024/01/31 07:54:47;;;;;;;12.13;8.33;;;;;;;;;;5052300;28;20317;-80
2024/01/31 07:57:14;;;;;;;15.07;8.40;;;;;;;;;;5047170;28;20696;-80
2024/01/31 07:59:41;;;;;;;12.10;8.67;;;;;;;;;;5051431;28;20209;-80
2024/01/31 08:02:08;;;;;;;15.07;10.80;;;;;;;;;;5050998;28;20653;-80
2024/01/31 08:04:35;;;;;;;16.03;9.77;;;;;;;;;;5051703;28;20213;-80
2024/01/31 08:07:03;;;;;;;17.30;11.53;;;;;;;;;;5051403;28;20233;-80
2024/01/31 08:09:30;;;;;;;17.33;11.33;;;;;;;;;;5051163;28;20209;-80
2024/01/31 08:11:57;;;;;;;17.70;11.53;;;;;;;;;;5050850;28;20237;-80
2024/01/31 08:14:24;;;;;;;13.63;10.93;;;;;;;;;;5051622;28;20202;-80
2024/01/31 08:16:52;;;;;;;17.67;10.40;;;;;;;;;;5050976;28;20229;-80
2024/01/31 08:19:19;;;;;;;15.17;10.30;;;;;;;;;;5049654;28;20276;-80
2024/01/31 08:21:46;;;;;;;18.37;11.53;;;;;;;;;;5050908;28;20249;-80
2024/01/31 08:24:14;;;;;;;18.67;11.37;;;;;;;;;;5051549;28;20260;-80
2024/01/31 08:26:41;;;;;;;14.23;9.77;;;;;;;;;;5051023;28;20276;-80
2024/01/31 08:29:08;;;;;;;16.47;10.97;;;;;;;;;;5050929;28;20293;-81
2024/01/31 08:31:35;;;;;;;19.13;11.17;;;;;;;;;;5050473;28;20238;-80
2024/01/31 08:34:02;;;;;;;23.80;14.40;;;;;;;;;;5051272;28;20871;-80
2024/01/31 08:36:29;;;;;;;19.27;13.17;;;;;;;;;;5042217;28;20242;-80
2024/01/31 08:38:56;;;;;;;20.00;12.53;;;;;;;;;;5041953;28;20566;-80
2024/01/31 08:41:25;;;;;;;25.67;14.30;;;;;;;;;;5050599;28;20230;-81
2024/01/31 08:43:52;;;;;;;28.10;13.13;;;;;;;;;;5051163;28;20212;-80
2024/01/31 08:46:19;;;;;;;21.13;13.83;;;;;;;;;;5050831;28;20225;-80
2024/01/31 08:48:46;;;;;;;24.37;14.63;;;;;;;;;;5044281;28;20731;-80
2024/01/31 08:51:14;;;;;;;25.83;13.70;;;;;;;;;;5050591;28;20225;-80
2024/01/31 08:53:42;;;;;;;29.60;15.53;;;;;;;;;;5050426;28;20202;-80
2024/01/31 08:56:10;;;;;;;23.23;14.80;;;;;;;;;;5043987;28;20232;-80
2024/01/31 08:58:39;;;;;;;25.47;14.33;;;;;;;;;;5044730;28;20235;-81
2024/01/31 09:01:07;;;;;;;34.03;16.60;;;;;;;;;;5050765;28;20237;-80
2024/01/31 09:03:34;;;;;;;28.27;15.87;;;;;;;;;;5061489;28;20233;-80
2024/01/31 09:06:01;;;;;;;33.33;14.93;;;;;;;;;;5052856;28;20757;-80
2024/01/31 09:08:28;;;;;;;26.87;15.63;;;;;;;;;;5048782;28;20268;-80
2024/01/31 09:10:56;;;;;;;23.63;15.13;;;;;;;;;;5052936;28;20317;-80
2024/01/31 09:13:23;;;;;;;25.07;14.60;;;;;;;;;;5050770;28;20844;-80
2024/01/31 09:15:51;;;;;;;31.53;15.03;;;;;;;;;;5052183;28;20234;-81
2024/01/31 09:18:18;;;;;;;26.33;14.07;;;;;;;;;;5054212;28;20222;-80
2024/01/31 09:20:45;;;;;;;22.23;12.73;;;;;;;;;;5053411;28;20265;-80
2024/01/31 09:23:12;;;;;;;20.37;13.20;;;;;;;;;;5054203;28;20229;-80
2024/01/31 09:25:39;;;;;;;20.03;12.13;;;;;;;;;;5053691;28;20242;-80
2024/01/31 09:28:06;;;;;;;23.10;13.00;;;;;;;;;;5053838;28;20205;-80
2024/01/31 09:30:33;;;;;;;23.57;12.70;;;;;;;;;;5050380;28;20241;-80
2024/01/31 09:33:02;;;;;;;29.73;13.80;;;;;;;;;;5052430;28;20696;-80
2024/01/31 09:35:29;;;;;;;28.43;14.43;;;;;;;;;;5053238;28;20291;-80
2024/01/31 09:37:56;;;;;;;29.13;16.50;;;;;;;;;;5053079;28;20240;-80
2024/01/31 09:40:23;;;;;;;30.90;17.33;;;;;;;;;;5052709;28;20230;-81
2024/01/31 09:42:51;;;;;;;28.10;15.13;;;;;;;;;;5052944;28;20230;-80
2024/01/31 09:45:18;;;;;;;23.10;14.67;;;;;;;;;;5053331;28;20293;-80
2024/01/31 09:47:47;;;;;;;23.80;13.70;;;;;;;;;;5052902;28;20221;-80
2024/01/31 09:50:16;;;;;;;19.73;11.70;;;;;;;;;;5051071;28;20210;-80
2024/01/31 09:52:43;;;;;;;20.60;11.80;;;;;;;;;;5050371;28;20258;-81
2024/01/31 09:55:10;;;;;;;18.37;11.33;;;;;;;;;;5052989;28;20206;-80
2024/01/31 09:57:38;;;;;;;18.03;11.60;;;;;;;;;;5053075;28;20267;-80
2024/01/31 10:00:05;;;;;;;20.20;12.93;;;;;;;;;;5048575;28;20285;-80
2024/01/31 10:02:33;;;;;;;17.30;10.20;;;;;;;;;;5053080;28;20704;-80
2024/01/31 10:05:00;;;;;;;13.63;9.90;;;;;;;;;;5053271;28;20214;-80
2024/01/31 10:07:30;;;;;;;15.43;9.03;;;;;;;;;;5052426;28;20233;-80
2024/01/31 10:09:57;;;;;;;12.40;8.87;;;;;;;;;;5052381;28;20198;-80
2024/01/31 10:12:25;;;;;;;15.40;7.67;;;;;;;;;;5051345;28;20638;-80
2024/01/31 10:14:52;;;;;;;8.23;5.70;;;;;;;;;;5053168;28;20577;-80
2024/01/31 10:17:21;;;;;;;6.47;5.30;;;;;;;;;;5052836;28;20238;-80
2024/01/31 10:19:48;;;;;;;7.93;4.97;;;;;;;;;;5052408;28;21056;-81
2024/01/31 10:22:15;;;;;;;8.63;5.47;;;;;;;;;;5052120;28;20601;-80
2024/01/31 10:24:46;;;;;;;4.67;4.23;;;;;;;;;;5052435;28;20202;-80
2024/01/31 10:27:14;;;;;;;4.60;4.20;;;;;;;;;;5052671;28;20222;-80
2024/01/31 10:29:42;;;;;;;4.43;3.77;;;;;;;;;;5052556;28;20264;-80
2024/01/31 10:32:09;;;;;;;4.10;3.30;;;;;;;;;;5052099;28;20237;-80
2024/01/31 10:34:37;;;;;;;6.93;3.60;;;;;;;;;;5052198;28;20213;-80
2024/01/31 10:37:05;;;;;;;5.70;3.60;;;;;;;;;;5051757;28;20696;-80
2024/01/31 10:39:32;;;;;;;3.83;3.40;;;;;;;;;;5052588;28;20230;-80
2024/01/31 10:42:02;;;;;;;4.43;3.30;;;;;;;;;;5051421;28;20237;-80
2024/01/31 10:44:29;;;;;;;4.53;3.17;;;;;;;;;;5052259;28;20616;-80
2024/01/31 10:46:56;;;;;;;3.30;3.00;;;;;;;;;;5051708;28;20230;-81
2024/01/31 10:49:23;;;;;;;3.83;3.43;;;;;;;;;;5046777;28;20198;-80
2024/01/31 10:51:51;;;;;;;5.63;3.53;;;;;;;;;;5051134;28;20238;-80
2024/01/31 10:54:21;;;;;;;5.53;3.60;;;;;;;;;;5051232;28;20205;-80
2024/01/31 10:56:48;;;;;;;6.77;3.57;;;;;;;;;;5050879;28;20233;-80
2024/01/31 10:59:17;;;;;;;5.17;3.03;;;;;;;;;;5051602;28;20218;-80
2024/01/31 11:01:51;;;;;;;4.37;3.03;;;;;;;;;;5048360;28;20712;-80
2024/01/31 11:04:19;;;;;;;3.83;2.80;;;;;;;;;;5050536;28;20293;-80
2024/01/31 11:06:50;;;;;;;3.00;2.80;;;;;;;;;;5050862;28;20241;-80
2024/01/31 11:09:18;;;;;;;4.33;2.77;;;;;;;;;;5051794;28;20225;-82
2024/01/31 11:11:45;;;;;;;4.00;2.03;;;;;;;;;;5051134;28;20321;-81
2024/01/31 11:14:14;;;;;;;2.73;1.97;;;;;;;;;;5051186;28;20616;-80
2024/01/31 11:16:42;;;;;;;3.93;2.20;;;;;;;;;;5051440;28;20264;-80
2024/01/31 11:19:10;;;;;;;1.93;1.83;;;;;;;;;;5051548;28;20242;-81
2024/01/31 11:21:39;;;;;;;2.30;1.93;;;;;;;;;;5051065;28;20763;-81
2024/01/31 11:24:06;;;;;;;2.73;2.23;;;;;;;;;;5051010;28;20306;-80
2024/01/31 11:26:34;;;;;;;2.07;1.70;;;;;;;;;;5050998;28;20238;-80
2024/01/31 11:29:03;;;;;;;2.50;1.87;;;;;;;;;;5051469;28;20213;-81
2024/01/31 11:31:30;;;;;;;2.10;2.00;;;;;;;;;;5050493;28;20857;-81
2024/01/31 11:34:00;;;;;;;1.90;1.80;;;;;;;;;;5049148;28;20214;-80
2024/01/31 11:36:27;;;;;;;2.97;2.00;;;;;;;;;;5048623;28;20230;-80
2024/01/31 11:38:54;;;;;;;3.93;2.30;;;;;;;;;;5049431;28;20221;-80
2024/01/31 11:41:22;;;;;;;2.10;2.00;;;;;;;;;;5048526;28;20233;-80
2024/01/31 11:43:49;;;;;;;2.17;2.03;;;;;;;;;;5050655;28;20251;-80
2024/01/31 11:46:17;;;;;;;2.20;2.00;;;;;;;;;;5049775;28;20233;-80
2024/01/31 11:48:44;;;;;;;3.77;2.40;;;;;;;;;;5050645;28;20205;-80
2024/01/31 11:51:12;;;;;;;7.13;3.40;;;;;;;;;;5050776;28;20240;-80
2024/01/31 11:53:39;;;;;;;3.40;2.20;;;;;;;;;;5051093;28;20210;-80
2024/01/31 11:56:06;;;;;;;3.10;2.10;;;;;;;;;;5050505;28;20230;-80
2024/01/31 11:58:35;;;;;;;3.60;3.10;;;;;;;;;;5050666;28;20237;-81
2024/01/31 12:01:02;;;;;;;1.83;1.73;;;;;;;;;;5049980;28;20700;-80
2024/01/31 12:03:29;;;;;;;1.77;1.60;;;;;;;;;;5050622;28;20326;-80
2024/01/31 12:05:57;;;;;;;1.60;1.60;;;;;;;;;;5050121;28;20263;-80
2024/01/31 12:08:27;;;;;;;1.67;1.57;;;;;;;;;;5046835;28;20225;-80
2024/01/31 12:10:54;;;;;;;2.03;1.87;;;;;;;;;;5048720;28;20232;-80
2024/01/31 12:13:21;;;;;;;2.73;2.27;;;;;;;;;;5050052;28;20245;-80
2024/01/31 12:15:49;;;;;;;3.40;1.80;;;;;;;;;;5050273;28;20242;-80
2024/01/31 12:18:16;;;;;;;2.53;2.33;;;;;;;;;;5050364;28;20222;-80
2024/01/31 12:20:43;;;;;;;2.90;2.10;;;;;;;;;;5050084;28;20242;-80
2024/01/31 12:23:10;;;;;;;1.87;1.77;;;;;;;;;;5049883;28;20275;-80
2024/01/31 12:25:39;;;;;;;3.17;2.10;;;;;;;;;;5049927;28;20237;-80
2024/01/31 12:28:06;;;;;;;2.13;1.93;;;;;;;;;;5050069;28;20785;-80
2024/01/31 12:30:33;;;;;;;3.67;1.80;;;;;;;;;;5050122;28;20241;-80
2024/01/31 12:33:00;;;;;;;1.87;1.73;;;;;;;;;;5049617;28;20226;-80
2024/01/31 12:35:27;;;;;;;2.40;1.87;;;;;;;;;;5049304;28;20769;-80
2024/01/31 12:37:54;;;;;;;1.77;1.67;;;;;;;;;;5050407;28;20649;-80
2024/01/31 12:40:21;;;;;;;1.57;1.47;;;;;;;;;;5049609;28;20260;-80
2024/01/31 12:42:50;;;;;;;3.80;1.70;;;;;;;;;;5049851;28;20654;-80
2024/01/31 12:45:17;;;;;;;4.60;2.00;;;;;;;;;;5049834;28;20206;-80
2024/01/31 12:47:44;;;;;;;3.17;1.80;;;;;;;;;;5050610;28;20214;-80
2024/01/31 12:50:11;;;;;;;2.27;1.70;;;;;;;;;;5049266;28;20227;-81
2024/01/31 12:52:38;;;;;;;2.80;2.10;;;;;;;;;;5049851;28;20237;-80
2024/01/31 12:55:06;;;;;;;2.00;1.60;;;;;;;;;;5049379;28;20209;-80
2024/01/31 12:57:33;;;;;;;1.93;1.80;;;;;;;;;;5050011;28;20630;-80
2024/01/31 13:00:01;;;;;;;1.50;1.40;;;;;;;;;;5049910;28;20283;-80
2024/01/31 13:02:28;;;;;;;2.50;2.03;;;;;;;;;;5049584;28;20234;-78
2024/01/31 13:04:55;;;;;;;1.90;1.80;;;;;;;;;;5050019;28;20624;-79
2024/01/31 13:07:22;;;;;;;1.63;1.53;;;;;;;;;;5049714;28;20301;-78
2024/01/31 13:09:49;;;;;;;1.80;1.70;;;;;;;;;;5044469;28;20218;-78
2024/01/31 13:12:16;;;;;;;2.40;2.20;;;;;;;;;;5048779;28;20226;-78
2024/01/31 13:14:43;;;;;;;1.90;1.77;;;;;;;;;;5049233;28;20953;-78
2024/01/31 13:17:11;;;;;;;2.00;1.90;;;;;;;;;;5048842;28;20720;-79
2024/01/31 13:19:38;;;;;;;2.53;2.03;;;;;;;;;;5049199;28;20234;-79
2024/01/31 13:22:06;;;;;;;1.93;1.80;;;;;;;;;;5049024;28;20245;-79
2024/01/31 13:24:35;;;;;;;2.00;1.90;;;;;;;;;;5049722;28;20206;-78
2024/01/31 13:27:02;;;;;;;3.33;2.20;;;;;;;;;;5049274;28;20546;-79
2024/01/31 13:29:29;;;;;;;2.23;2.03;;;;;;;;;;5049719;28;20206;-79
2024/01/31 13:31:56;;;;;;;1.90;1.80;;;;;;;;;;5049285;28;20238;-79
2024/01/31 13:34:25;;;;;;;2.00;1.90;;;;;;;;;;5050074;28;20276;-79
2024/01/31 13:36:52;;;;;;;1.93;1.77;;;;;;;;;;5049654;28;20704;-79
2024/01/31 13:39:19;;;;;;;2.13;1.93;;;;;;;;;;5049411;28;20791;-79
2024/01/31 13:41:46;;;;;;;4.23;1.83;;;;;;;;;;5048949;28;20647;-79
2024/01/31 13:44:14;;;;;;;2.83;2.10;;;;;;;;;;5049396;28;20198;-78
2024/01/31 13:46:41;;;;;;;1.87;1.67;;;;;;;;;;5051494;28;20700;-78
2024/01/31 13:49:08;;;;;;;1.80;1.70;;;;;;;;;;5053244;28;20206;-78
2024/01/31 13:51:37;;;;;;;2.30;2.10;;;;;;;;;;5052515;28;20237;-78
2024/01/31 13:54:04;;;;;;;2.93;2.33;;;;;;;;;;5052579;28;20214;-78
2024/01/31 13:56:31;;;;;;;1.70;1.60;;;;;;;;;;5052507;28;20232;-79
2024/01/31 13:58:58;;;;;;;4.00;2.80;;;;;;;;;;5053274;28;20256;-79
2024/01/31 14:01:25;;;;;;;2.60;2.00;;;;;;;;;;5052411;28;20238;-79
2024/01/31 14:03:52;;;;;;;1.60;1.50;;;;;;;;;;5052696;28;20207;-79
2024/01/31 14:06:19;;;;;;;1.80;1.70;;;;;;;;;;5052326;28;20691;-79
2024/01/31 14:08:48;;;;;;;2.97;2.20;;;;;;;;;;5052578;28;20217;-78
2024/01/31 14:11:17;;;;;;;3.33;2.30;;;;;;;;;;5046571;28;20233;-80
2024/01/31 14:13:44;;;;;;;2.03;1.83;;;;;;;;;;5052469;28;20206;-80
2024/01/31 14:16:14;;;;;;;2.43;1.93;;;;;;;;;;5052222;28;20265;-80
2024/01/31 14:18:41;;;;;;;2.37;2.10;;;;;;;;;;5053024;28;20209;-80
2024/01/31 14:21:08;;;;;;;1.83;1.70;;;;;;;;;;5051694;28;20623;-80
2024/01/31 14:23:35;;;;;;;2.70;2.50;;;;;;;;;;5051995;28;20280;-80
2024/01/31 14:26:04;;;;;;;2.77;2.00;;;;;;;;;;5051995;28;20241;-80